Aeroporto :
LOGIN :

Iscrizione | Disclaimer

   EN    FR    IT 

 










Sommario :    VFR   VFR Marginale   IFR   IFR Intensivo   IFR Molto Intensivo
Visibilità : 
Base nubi : 
>= 8 km
>= 3000ft
5 / 8 km
1000 / 3000 ft
1500m / 5 km
500 / 1000 ft
800 / 1500m
200 / 500 ft
< 800m
< 200 ft
Simboli :   Temporali  Nebbia  Neve Forte  Precipitazioni Forti  Vento > 20 kt
SIGMETs :   Varie  Temporali  Ghiacco  Turbolenza  Onda orograficha  Ceneri Vulcaniche






- Altitudine del aeroporto : 1682 ft
- Codice IATA : VIT


LEVT - Vitoria Gasteiz

ULTIMO METAR :
  • 230100Z VRB01KT CAVOK 00/M00 Q1035

METARs OBSOLETI :
  • 230030Z 00000KT CAVOK 00/M00 Q1035
  • 230000Z VRB01KT CAVOK 01/00 Q1035
  • 222330Z 00000KT CAVOK 01/00 Q1035
  • 222300Z VRB01KT CAVOK 02/01 Q1035
  • 222230Z VRB01KT CAVOK 03/02 Q1035

TAF TAF LEVT
Valido dal 23 a 00 ore il 24 a 00 ore UTC


222300Z 2300/2324 VRB03KT CAVOK TX19/2315Z TNM01/2306Z
PROB40
TEMPO 2300/2309 3000 BR
PROB30
TEMPO 2303/2308 0800 BCFG
TEMPO 2315/2320 03010KT



MetMap, La meteo Aeronautica in un colpo d'occhio ! - Copyright ORBIFLY Dicembre 2007 - Disclaimer

ORBIFLY MET'MAP TEAM :

Programmazione e sviluppo : Alexandra Zaïnal
Concezione : Baudouin d'Aumeries
Aiuto per la programmazione : Marc-Olivier Méhu
Supporto tecnico e logistico : Manuel Goepfert
Aiuto per la traduzione : Arnaldo La Scala

Contatto : metmap@orbifly.com




FONTI E CREDITI :

   NOAA